sensor_id;sensor_type;location;lat;lon;timestamp;P1;durP1;ratioP1;P2;durP2;ratioP2
66546;SDS011;53400;50.364;14.874;2024-02-04T00:01:07;5.07;;;1.63;;
66546;SDS011;53400;50.364;14.874;2024-02-04T00:03:56;7.53;;;2.40;;
66546;SDS011;53400;50.364;14.874;2024-02-04T00:06:22;4.45;;;2.17;;
66546;SDS011;53400;50.364;14.874;2024-02-04T00:08:51;5.55;;;2.63;;
66546;SDS011;53400;50.364;14.874;2024-02-04T00:11:18;3.95;;;1.88;;
66546;SDS011;53400;50.364;14.874;2024-02-04T00:13:46;4.38;;;1.70;;
66546;SDS011;53400;50.364;14.874;2024-02-04T00:16:26;4.60;;;2.22;;
66546;SDS011;53400;50.364;14.874;2024-02-04T00:18:54;4.28;;;1.77;;
66546;SDS011;53400;50.364;14.874;2024-02-04T00:21:22;4.18;;;1.80;;
66546;SDS011;53400;50.364;14.874;2024-02-04T00:23:56;4.13;;;1.77;;
66546;SDS011;53400;50.364;14.874;2024-02-04T00:26:24;5.35;;;2.05;;
66546;SDS011;53400;50.364;14.874;2024-02-04T00:28:56;3.90;;;1.88;;
66546;SDS011;53400;50.364;14.874;2024-02-04T00:31:26;3.13;;;1.35;;
66546;SDS011;53400;50.364;14.874;2024-02-04T00:33:54;4.93;;;2.05;;
66546;SDS011;53400;50.364;14.874;2024-02-04T00:36:21;4.45;;;1.67;;
66546;SDS011;53400;50.364;14.874;2024-02-04T00:38:49;3.92;;;1.60;;
66546;SDS011;53400;50.364;14.874;2024-02-04T00:41:19;3.63;;;1.65;;
66546;SDS011;53400;50.364;14.874;2024-02-04T00:43:45;3.88;;;1.70;;
66546;SDS011;53400;50.364;14.874;2024-02-04T00:46:15;2.58;;;1.27;;
66546;SDS011;53400;50.364;14.874;2024-02-04T00:48:47;4.63;;;1.48;;
66546;SDS011;53400;50.364;14.874;2024-02-04T00:51:14;3.33;;;1.35;;
66546;SDS011;53400;50.364;14.874;2024-02-04T00:53:42;3.08;;;1.35;;
66546;SDS011;53400;50.364;14.874;2024-02-04T00:56:16;3.13;;;1.27;;
66546;SDS011;53400;50.364;14.874;2024-02-04T00:58:42;3.75;;;1.67;;
66546;SDS011;53400;50.364;14.874;2024-02-04T01:01:12;5.65;;;1.50;;
66546;SDS011;53400;50.364;14.874;2024-02-04T01:03:44;4.65;;;1.83;;
66546;SDS011;53400;50.364;14.874;2024-02-04T01:06:12;4.10;;;1.63;;
66546;SDS011;53400;50.364;14.874;2024-02-04T01:08:41;5.65;;;1.95;;
66546;SDS011;53400;50.364;14.874;2024-02-04T01:11:07;4.63;;;2.00;;
66546;SDS011;53400;50.364;14.874;2024-02-04T01:13:41;4.68;;;2.05;;
66546;SDS011;53400;50.364;14.874;2024-02-04T01:16:14;4.95;;;2.20;;
66546;SDS011;53400;50.364;14.874;2024-02-04T01:18:40;5.88;;;2.42;;
66546;SDS011;53400;50.364;14.874;2024-02-04T01:21:06;5.28;;;2.38;;
66546;SDS011;53400;50.364;14.874;2024-02-04T01:23:37;5.68;;;2.47;;
66546;SDS011;53400;50.364;14.874;2024-02-04T01:26:26;5.47;;;2.50;;
66546;SDS011;53400;50.364;14.874;2024-02-04T01:28:53;4.40;;;1.92;;
66546;SDS011;53400;50.364;14.874;2024-02-04T01:31:19;5.10;;;2.30;;
66546;SDS011;53400;50.364;14.874;2024-02-04T01:33:46;4.43;;;1.90;;
66546;SDS011;53400;50.364;14.874;2024-02-04T01:36:12;4.80;;;2.10;;
66546;SDS011;53400;50.364;14.874;2024-02-04T01:38:38;3.35;;;1.50;;
66546;SDS011;53400;50.364;14.874;2024-02-04T01:41:04;3.88;;;1.48;;
66546;SDS011;53400;50.364;14.874;2024-02-04T01:43:39;4.60;;;2.17;;
66546;SDS011;53400;50.364;14.874;2024-02-04T01:46:14;4.63;;;1.80;;
66546;SDS011;53400;50.364;14.874;2024-02-04T01:48:43;4.43;;;1.80;;
66546;SDS011;53400;50.364;14.874;2024-02-04T01:51:10;5.07;;;2.03;;
66546;SDS011;53400;50.364;14.874;2024-02-04T01:53:41;4.80;;;2.40;;
66546;SDS011;53400;50.364;14.874;2024-02-04T01:56:20;3.45;;;1.30;;
66546;SDS011;53400;50.364;14.874;2024-02-04T01:58:47;3.85;;;1.80;;
66546;SDS011;53400;50.364;14.874;2024-02-04T02:01:17;5.13;;;2.13;;
66546;SDS011;53400;50.364;14.874;2024-02-04T02:03:52;3.17;;;1.25;;
66546;SDS011;53400;50.364;14.874;2024-02-04T02:06:23;3.88;;;1.52;;
66546;SDS011;53400;50.364;14.874;2024-02-04T02:08:50;2.75;;;1.20;;
66546;SDS011;53400;50.364;14.874;2024-02-04T02:11:21;3.47;;;1.55;;
66546;SDS011;53400;50.364;14.874;2024-02-04T02:13:56;2.90;;;1.30;;
66546;SDS011;53400;50.364;14.874;2024-02-04T02:16:28;3.80;;;1.50;;
66546;SDS011;53400;50.364;14.874;2024-02-04T02:19:11;3.38;;;1.38;;
66546;SDS011;53400;50.364;14.874;2024-02-04T02:21:50;4.18;;;1.60;;
66546;SDS011;53400;50.364;14.874;2024-02-04T02:24:32;3.13;;;1.52;;
66546;SDS011;53400;50.364;14.874;2024-02-04T02:26:59;3.30;;;1.38;;
66546;SDS011;53400;50.364;14.874;2024-02-04T02:29:25;4.00;;;1.70;;
66546;SDS011;53400;50.364;14.874;2024-02-04T02:31:51;4.13;;;1.70;;
66546;SDS011;53400;50.364;14.874;2024-02-04T02:34:17;4.07;;;1.85;;
66546;SDS011;53400;50.364;14.874;2024-02-04T02:36:44;3.67;;;1.55;;
66546;SDS011;53400;50.364;14.874;2024-02-04T02:39:13;4.50;;;1.70;;
66546;SDS011;53400;50.364;14.874;2024-02-04T02:41:46;4.22;;;1.67;;
66546;SDS011;53400;50.364;14.874;2024-02-04T02:44:18;4.47;;;1.60;;
66546;SDS011;53400;50.364;14.874;2024-02-04T02:46:46;4.03;;;1.70;;
66546;SDS011;53400;50.364;14.874;2024-02-04T02:49:14;3.83;;;1.83;;
66546;SDS011;53400;50.364;14.874;2024-02-04T02:51:46;3.75;;;1.70;;
66546;SDS011;53400;50.364;14.874;2024-02-04T02:54:13;4.40;;;2.10;;
66546;SDS011;53400;50.364;14.874;2024-02-04T02:56:39;3.90;;;1.80;;
66546;SDS011;53400;50.364;14.874;2024-02-04T02:59:07;3.35;;;1.48;;
66546;SDS011;53400;50.364;14.874;2024-02-04T03:01:47;3.63;;;1.52;;
66546;SDS011;53400;50.364;14.874;2024-02-04T03:04:16;3.47;;;1.30;;
66546;SDS011;53400;50.364;14.874;2024-02-04T03:06:45;2.70;;;1.50;;
66546;SDS011;53400;50.364;14.874;2024-02-04T03:09:11;4.43;;;1.35;;
66546;SDS011;53400;50.364;14.874;2024-02-04T03:11:40;2.30;;;0.90;;
66546;SDS011;53400;50.364;14.874;2024-02-04T03:14:21;2.80;;;1.02;;
66546;SDS011;53400;50.364;14.874;2024-02-04T03:16:48;3.25;;;1.27;;
66546;SDS011;53400;50.364;14.874;2024-02-04T03:19:14;3.25;;;1.30;;
66546;SDS011;53400;50.364;14.874;2024-02-04T03:21:41;3.45;;;1.40;;
66546;SDS011;53400;50.364;14.874;2024-02-04T03:24:07;4.68;;;1.30;;
66546;SDS011;53400;50.364;14.874;2024-02-04T03:26:34;3.38;;;1.60;;
66546;SDS011;53400;50.364;14.874;2024-02-04T03:28:59;2.72;;;1.30;;
66546;SDS011;53400;50.364;14.874;2024-02-04T03:31:27;4.28;;;1.77;;
66546;SDS011;53400;50.364;14.874;2024-02-04T03:33:58;3.90;;;1.48;;
66546;SDS011;53400;50.364;14.874;2024-02-04T03:36:28;3.65;;;1.42;;
66546;SDS011;53400;50.364;14.874;2024-02-04T03:38:54;2.88;;;1.40;;
66546;SDS011;53400;50.364;14.874;2024-02-04T03:41:20;3.45;;;1.67;;
66546;SDS011;53400;50.364;14.874;2024-02-04T03:43:51;3.70;;;1.70;;
66546;SDS011;53400;50.364;14.874;2024-02-04T03:46:21;4.10;;;1.70;;
66546;SDS011;53400;50.364;14.874;2024-02-04T03:48:49;3.90;;;2.22;;
66546;SDS011;53400;50.364;14.874;2024-02-04T03:51:15;4.65;;;2.10;;
66546;SDS011;53400;50.364;14.874;2024-02-04T03:53:45;4.13;;;2.22;;
66546;SDS011;53400;50.364;14.874;2024-02-04T03:56:21;4.68;;;1.92;;
66546;SDS011;53400;50.364;14.874;2024-02-04T03:58:50;4.30;;;1.80;;
66546;SDS011;53400;50.364;14.874;2024-02-04T04:01:17;7.10;;;2.15;;
66546;SDS011;53400;50.364;14.874;2024-02-04T04:03:43;4.78;;;2.00;;
66546;SDS011;53400;50.364;14.874;2024-02-04T04:06:18;3.42;;;1.73;;
66546;SDS011;53400;50.364;14.874;2024-02-04T04:08:44;3.92;;;1.70;;
66546;SDS011;53400;50.364;14.874;2024-02-04T04:11:11;4.03;;;1.60;;
66546;SDS011;53400;50.364;14.874;2024-02-04T04:13:45;3.72;;;1.58;;
66546;SDS011;53400;50.364;14.874;2024-02-04T04:16:12;3.30;;;1.50;;
66546;SDS011;53400;50.364;14.874;2024-02-04T04:18:39;3.83;;;1.30;;
66546;SDS011;53400;50.364;14.874;2024-02-04T04:21:06;3.67;;;1.33;;
66546;SDS011;53400;50.364;14.874;2024-02-04T04:23:47;3.53;;;1.38;;
66546;SDS011;53400;50.364;14.874;2024-02-04T04:26:17;2.85;;;1.13;;
66546;SDS011;53400;50.364;14.874;2024-02-04T04:28:46;4.65;;;1.15;;
66546;SDS011;53400;50.364;14.874;2024-02-04T04:31:12;4.43;;;1.40;;
66546;SDS011;53400;50.364;14.874;2024-02-04T04:33:38;3.92;;;1.48;;
66546;SDS011;53400;50.364;14.874;2024-02-04T04:36:19;4.03;;;1.30;;
66546;SDS011;53400;50.364;14.874;2024-02-04T04:38:47;5.65;;;1.50;;
66546;SDS011;53400;50.364;14.874;2024-02-04T04:41:18;4.53;;;1.40;;
66546;SDS011;53400;50.364;14.874;2024-02-04T04:43:46;2.60;;;1.02;;
66546;SDS011;53400;50.364;14.874;2024-02-04T04:46:14;3.55;;;1.23;;
66546;SDS011;53400;50.364;14.874;2024-02-04T04:48:39;3.08;;;1.30;;
66546;SDS011;53400;50.364;14.874;2024-02-04T04:51:07;2.63;;;1.00;;
66546;SDS011;53400;50.364;14.874;2024-02-04T04:53:42;3.75;;;1.00;;
66546;SDS011;53400;50.364;14.874;2024-02-04T04:56:12;2.22;;;1.10;;
66546;SDS011;53400;50.364;14.874;2024-02-04T04:58:38;3.58;;;1.25;;
66546;SDS011;53400;50.364;14.874;2024-02-04T05:01:05;3.20;;;1.00;;
66546;SDS011;53400;50.364;14.874;2024-02-04T05:03:32;2.92;;;0.90;;
66546;SDS011;53400;50.364;14.874;2024-02-04T05:06:11;3.33;;;1.10;;
66546;SDS011;53400;50.364;14.874;2024-02-04T05:08:39;2.63;;;1.00;;
66546;SDS011;53400;50.364;14.874;2024-02-04T05:11:05;3.38;;;1.10;;
66546;SDS011;53400;50.364;14.874;2024-02-04T05:13:32;3.65;;;1.05;;
66546;SDS011;53400;50.364;14.874;2024-02-04T05:18:30;3.78;;;1.10;;
66546;SDS011;53400;50.364;14.874;2024-02-04T05:20:56;2.67;;;1.08;;
66546;SDS011;53400;50.364;14.874;2024-02-04T05:23:24;2.15;;;1.25;;
66546;SDS011;53400;50.364;14.874;2024-02-04T05:25:50;3.47;;;1.20;;
66546;SDS011;53400;50.364;14.874;2024-02-04T05:28:16;3.25;;;1.10;;
66546;SDS011;53400;50.364;14.874;2024-02-04T05:30:44;2.97;;;1.20;;
66546;SDS011;53400;50.364;14.874;2024-02-04T05:33:13;4.07;;;1.20;;
66546;SDS011;53400;50.364;14.874;2024-02-04T05:35:48;4.78;;;1.40;;
66546;SDS011;53400;50.364;14.874;2024-02-04T05:38:15;4.32;;;1.40;;
66546;SDS011;53400;50.364;14.874;2024-02-04T05:40:42;3.08;;;1.20;;
66546;SDS011;53400;50.364;14.874;2024-02-04T05:43:12;4.03;;;1.50;;
66546;SDS011;53400;50.364;14.874;2024-02-04T05:45:41;3.00;;;1.00;;
66546;SDS011;53400;50.364;14.874;2024-02-04T05:48:17;3.40;;;1.00;;
66546;SDS011;53400;50.364;14.874;2024-02-04T05:50:44;4.55;;;1.00;;
66546;SDS011;53400;50.364;14.874;2024-02-04T05:53:10;2.45;;;1.08;;
66546;SDS011;53400;50.364;14.874;2024-02-04T05:55:41;2.53;;;0.95;;
66546;SDS011;53400;50.364;14.874;2024-02-04T05:58:25;3.38;;;1.10;;
66546;SDS011;53400;50.364;14.874;2024-02-04T06:00:53;3.90;;;1.35;;
66546;SDS011;53400;50.364;14.874;2024-02-04T06:03:19;2.00;;;0.90;;
66546;SDS011;53400;50.364;14.874;2024-02-04T06:05:46;3.17;;;1.30;;
66546;SDS011;53400;50.364;14.874;2024-02-04T06:08:13;2.70;;;1.00;;
66546;SDS011;53400;50.364;14.874;2024-02-04T06:10:39;4.57;;;1.10;;
66546;SDS011;53400;50.364;14.874;2024-02-04T06:13:05;3.83;;;1.17;;
66546;SDS011;53400;50.364;14.874;2024-02-04T06:15:31;2.67;;;0.90;;
66546;SDS011;53400;50.364;14.874;2024-02-04T06:18:07;3.17;;;1.00;;
66546;SDS011;53400;50.364;14.874;2024-02-04T06:20:43;2.00;;;0.70;;
66546;SDS011;53400;50.364;14.874;2024-02-04T06:23:09;2.28;;;0.90;;
66546;SDS011;53400;50.364;14.874;2024-02-04T06:25:40;3.30;;;1.05;;
66546;SDS011;53400;50.364;14.874;2024-02-04T06:28:14;3.97;;;1.38;;
66546;SDS011;53400;50.364;14.874;2024-02-04T06:30:43;2.20;;;0.98;;
66546;SDS011;53400;50.364;14.874;2024-02-04T06:33:10;4.35;;;1.27;;
66546;SDS011;53400;50.364;14.874;2024-02-04T06:35:37;3.80;;;1.27;;
66546;SDS011;53400;50.364;14.874;2024-02-04T06:38:15;4.35;;;1.33;;
66546;SDS011;53400;50.364;14.874;2024-02-04T06:40:41;4.10;;;1.65;;
66546;SDS011;53400;50.364;14.874;2024-02-04T06:43:07;2.65;;;1.05;;
66546;SDS011;53400;50.364;14.874;2024-02-04T06:45:33;3.70;;;1.35;;
66546;SDS011;53400;50.364;14.874;2024-02-04T06:48:08;3.15;;;1.30;;
66546;SDS011;53400;50.364;14.874;2024-02-04T06:50:39;3.05;;;1.15;;
66546;SDS011;53400;50.364;14.874;2024-02-04T06:53:05;2.97;;;1.10;;
66546;SDS011;53400;50.364;14.874;2024-02-04T06:55:31;4.13;;;1.60;;
66546;SDS011;53400;50.364;14.874;2024-02-04T06:57:57;3.13;;;1.20;;
66546;SDS011;53400;50.364;14.874;2024-02-04T07:00:26;4.50;;;1.40;;
66546;SDS011;53400;50.364;14.874;2024-02-04T07:03:08;4.90;;;1.58;;
66546;SDS011;53400;50.364;14.874;2024-02-04T07:05:41;3.78;;;1.60;;
66546;SDS011;53400;50.364;14.874;2024-02-04T07:08:24;3.47;;;1.17;;
66546;SDS011;53400;50.364;14.874;2024-02-04T07:10:51;3.95;;;1.40;;
66546;SDS011;53400;50.364;14.874;2024-02-04T07:13:17;3.55;;;1.60;;
66546;SDS011;53400;50.364;14.874;2024-02-04T07:15:46;4.25;;;1.50;;
66546;SDS011;53400;50.364;14.874;2024-02-04T07:18:13;3.97;;;1.40;;
66546;SDS011;53400;50.364;14.874;2024-02-04T07:20:43;5.15;;;1.30;;
66546;SDS011;53400;50.364;14.874;2024-02-04T07:23:13;3.08;;;1.23;;
66546;SDS011;53400;50.364;14.874;2024-02-04T07:25:39;4.25;;;1.48;;
66546;SDS011;53400;50.364;14.874;2024-02-04T07:30:50;5.00;;;1.60;;
66546;SDS011;53400;50.364;14.874;2024-02-04T07:33:23;4.47;;;1.63;;
66546;SDS011;53400;50.364;14.874;2024-02-04T07:35:56;4.57;;;2.15;;
66546;SDS011;53400;50.364;14.874;2024-02-04T07:38:25;3.85;;;1.70;;
66546;SDS011;53400;50.364;14.874;2024-02-04T07:40:51;4.90;;;1.90;;
66546;SDS011;53400;50.364;14.874;2024-02-04T07:43:17;5.35;;;2.03;;
66546;SDS011;53400;50.364;14.874;2024-02-04T07:45:46;4.88;;;2.25;;
66546;SDS011;53400;50.364;14.874;2024-02-04T07:48:18;7.07;;;2.30;;
66546;SDS011;53400;50.364;14.874;2024-02-04T07:50:46;6.50;;;2.60;;
66546;SDS011;53400;50.364;14.874;2024-02-04T07:53:17;4.53;;;2.08;;
66546;SDS011;53400;50.364;14.874;2024-02-04T07:55:45;5.00;;;2.00;;
66546;SDS011;53400;50.364;14.874;2024-02-04T07:58:17;4.43;;;1.85;;
66546;SDS011;53400;50.364;14.874;2024-02-04T08:00:42;4.53;;;2.10;;
66546;SDS011;53400;50.364;14.874;2024-02-04T08:03:09;5.35;;;2.35;;
66546;SDS011;53400;50.364;14.874;2024-02-04T08:05:48;5.28;;;2.15;;
66546;SDS011;53400;50.364;14.874;2024-02-04T08:08:19;5.13;;;2.30;;
66546;SDS011;53400;50.364;14.874;2024-02-04T08:10:48;6.68;;;2.47;;
66546;SDS011;53400;50.364;14.874;2024-02-04T08:13:16;4.47;;;2.08;;
66546;SDS011;53400;50.364;14.874;2024-02-04T08:15:47;5.45;;;2.17;;
66546;SDS011;53400;50.364;14.874;2024-02-04T08:18:21;6.13;;;2.38;;
66546;SDS011;53400;50.364;14.874;2024-02-04T08:20:47;6.68;;;2.53;;
66546;SDS011;53400;50.364;14.874;2024-02-04T08:23:14;6.18;;;2.42;;
66546;SDS011;53400;50.364;14.874;2024-02-04T08:25:44;7.95;;;2.67;;
66546;SDS011;53400;50.364;14.874;2024-02-04T08:28:14;6.05;;;2.33;;
66546;SDS011;53400;50.364;14.874;2024-02-04T08:30:46;7.65;;;2.60;;
66546;SDS011;53400;50.364;14.874;2024-02-04T08:33:15;5.82;;;2.60;;
66546;SDS011;53400;50.364;14.874;2024-02-04T08:35:48;7.07;;;2.60;;
66546;SDS011;53400;50.364;14.874;2024-02-04T08:38:15;5.60;;;2.10;;
66546;SDS011;53400;50.364;14.874;2024-02-04T08:40:46;6.07;;;2.45;;
66546;SDS011;53400;50.364;14.874;2024-02-04T08:43:19;4.68;;;1.90;;
66546;SDS011;53400;50.364;14.874;2024-02-04T08:45:48;4.85;;;1.80;;
66546;SDS011;53400;50.364;14.874;2024-02-04T08:48:17;5.60;;;1.67;;
66546;SDS011;53400;50.364;14.874;2024-02-04T08:50:43;4.97;;;1.85;;
66546;SDS011;53400;50.364;14.874;2024-02-04T08:53:10;5.97;;;1.80;;
66546;SDS011;53400;50.364;14.874;2024-02-04T08:55:40;4.88;;;1.70;;
66546;SDS011;53400;50.364;14.874;2024-02-04T08:58:15;3.72;;;1.15;;
66546;SDS011;53400;50.364;14.874;2024-02-04T09:00:43;3.80;;;1.05;;
66546;SDS011;53400;50.364;14.874;2024-02-04T09:03:09;3.10;;;1.10;;
66546;SDS011;53400;50.364;14.874;2024-02-04T09:05:38;2.78;;;1.02;;
66546;SDS011;53400;50.364;14.874;2024-02-04T09:08:07;1.23;;;0.70;;
66546;SDS011;53400;50.364;14.874;2024-02-04T09:10:33;2.10;;;0.90;;
66546;SDS011;53400;50.364;14.874;2024-02-04T09:12:59;0.63;;;0.50;;
66546;SDS011;53400;50.364;14.874;2024-02-04T09:15:26;1.23;;;0.60;;
66546;SDS011;53400;50.364;14.874;2024-02-04T09:17:54;2.25;;;0.90;;
66546;SDS011;53400;50.364;14.874;2024-02-04T09:20:25;1.98;;;0.80;;
66546;SDS011;53400;50.364;14.874;2024-02-04T09:22:58;1.45;;;0.70;;
66546;SDS011;53400;50.364;14.874;2024-02-04T09:25:24;2.38;;;0.82;;
66546;SDS011;53400;50.364;14.874;2024-02-04T09:27:51;1.42;;;0.70;;
66546;SDS011;53400;50.364;14.874;2024-02-04T09:30:21;0.63;;;0.40;;
66546;SDS011;53400;50.364;14.874;2024-02-04T09:32:52;1.55;;;0.63;;
66546;SDS011;53400;50.364;14.874;2024-02-04T09:35:20;1.90;;;0.90;;
66546;SDS011;53400;50.364;14.874;2024-02-04T09:37:55;1.63;;;0.75;;
66546;SDS011;53400;50.364;14.874;2024-02-04T09:40:21;1.38;;;0.57;;
66546;SDS011;53400;50.364;14.874;2024-02-04T09:42:50;2.67;;;0.70;;
66546;SDS011;53400;50.364;14.874;2024-02-04T09:45:17;1.13;;;0.60;;
66546;SDS011;53400;50.364;14.874;2024-02-04T09:47:47;1.42;;;0.70;;
66546;SDS011;53400;50.364;14.874;2024-02-04T09:50:28;0.95;;;0.50;;
66546;SDS011;53400;50.364;14.874;2024-02-04T09:52:57;1.35;;;0.70;;
66546;SDS011;53400;50.364;14.874;2024-02-04T09:55:31;1.60;;;0.50;;
66546;SDS011;53400;50.364;14.874;2024-02-04T09:58:12;1.13;;;0.43;;
66546;SDS011;53400;50.364;14.874;2024-02-04T10:00:39;0.60;;;0.50;;
66546;SDS011;53400;50.364;14.874;2024-02-04T10:03:15;1.08;;;0.57;;
66546;SDS011;53400;50.364;14.874;2024-02-04T10:05:47;0.38;;;0.32;;
66546;SDS011;53400;50.364;14.874;2024-02-04T10:08:23;0.47;;;0.40;;
66546;SDS011;53400;50.364;14.874;2024-02-04T10:11:02;1.55;;;0.50;;
66546;SDS011;53400;50.364;14.874;2024-02-04T10:13:43;0.95;;;0.40;;
66546;SDS011;53400;50.364;14.874;2024-02-04T10:16:29;1.77;;;0.38;;
66546;SDS011;53400;50.364;14.874;2024-02-04T10:18:56;2.63;;;0.70;;
66546;SDS011;53400;50.364;14.874;2024-02-04T10:21:25;1.00;;;0.60;;
66546;SDS011;53400;50.364;14.874;2024-02-04T10:24:02;1.35;;;0.60;;
66546;SDS011;53400;50.364;14.874;2024-02-04T10:26:36;0.30;;;0.30;;
66546;SDS011;53400;50.364;14.874;2024-02-04T10:29:04;1.75;;;0.47;;
66546;SDS011;53400;50.364;14.874;2024-02-04T10:31:45;1.08;;;0.73;;
66546;SDS011;53400;50.364;14.874;2024-02-04T10:34:14;1.42;;;0.60;;
66546;SDS011;53400;50.364;14.874;2024-02-04T10:36:44;1.00;;;0.80;;
66546;SDS011;53400;50.364;14.874;2024-02-04T10:39:10;1.05;;;0.50;;
66546;SDS011;53400;50.364;14.874;2024-02-04T10:41:48;1.13;;;0.50;;
66546;SDS011;53400;50.364;14.874;2024-02-04T10:44:25;1.20;;;0.50;;
66546;SDS011;53400;50.364;14.874;2024-02-04T10:47:00;0.57;;;0.50;;
66546;SDS011;53400;50.364;14.874;2024-02-04T10:49:33;1.45;;;0.60;;
66546;SDS011;53400;50.364;14.874;2024-02-04T10:52:21;1.42;;;0.50;;
66546;SDS011;53400;50.364;14.874;2024-02-04T10:54:50;0.85;;;0.40;;
66546;SDS011;53400;50.364;14.874;2024-02-04T10:57:26;1.23;;;0.60;;
66546;SDS011;53400;50.364;14.874;2024-02-04T10:59:55;1.33;;;0.57;;
66546;SDS011;53400;50.364;14.874;2024-02-04T11:02:32;2.03;;;0.70;;
66546;SDS011;53400;50.364;14.874;2024-02-04T11:05:00;1.40;;;0.68;;
66546;SDS011;53400;50.364;14.874;2024-02-04T11:07:29;1.55;;;0.50;;
66546;SDS011;53400;50.364;14.874;2024-02-04T11:09:58;0.63;;;0.40;;
66546;SDS011;53400;50.364;14.874;2024-02-04T11:12:24;0.70;;;0.47;;
66546;SDS011;53400;50.364;14.874;2024-02-04T11:14:52;1.50;;;0.55;;
66546;SDS011;53400;50.364;14.874;2024-02-04T11:20:33;0.70;;;0.50;;
66546;SDS011;53400;50.364;14.874;2024-02-04T11:23:26;1.02;;;0.60;;
66546;SDS011;53400;50.364;14.874;2024-02-04T11:28:31;2.95;;;0.70;;
66546;SDS011;53400;50.364;14.874;2024-02-04T11:30:58;2.33;;;0.60;;
66546;SDS011;53400;50.364;14.874;2024-02-04T11:33:24;1.38;;;0.70;;
66546;SDS011;53400;50.364;14.874;2024-02-04T11:36:00;1.42;;;0.73;;
66546;SDS011;53400;50.364;14.874;2024-02-04T11:38:30;1.50;;;0.60;;
66546;SDS011;53400;50.364;14.874;2024-02-04T11:40:57;2.17;;;0.70;;
66546;SDS011;53400;50.364;14.874;2024-02-04T11:43:23;2.05;;;0.80;;
66546;SDS011;53400;50.364;14.874;2024-02-04T11:45:51;2.78;;;0.93;;
66546;SDS011;53400;50.364;14.874;2024-02-04T11:48:28;2.70;;;0.90;;
66546;SDS011;53400;50.364;14.874;2024-02-04T11:50:55;1.88;;;0.60;;
66546;SDS011;53400;50.364;14.874;2024-02-04T11:53:23;1.73;;;0.70;;
66546;SDS011;53400;50.364;14.874;2024-02-04T11:55:58;1.33;;;0.60;;
66546;SDS011;53400;50.364;14.874;2024-02-04T11:58:26;1.58;;;0.75;;
66546;SDS011;53400;50.364;14.874;2024-02-04T12:00:53;1.60;;;0.70;;
66546;SDS011;53400;50.364;14.874;2024-02-04T12:03:28;1.23;;;0.55;;
66546;SDS011;53400;50.364;14.874;2024-02-04T12:05:57;1.67;;;0.65;;
66546;SDS011;53400;50.364;14.874;2024-02-04T12:08:24;1.80;;;0.70;;
66546;SDS011;53400;50.364;14.874;2024-02-04T12:10:51;1.88;;;0.80;;
66546;SDS011;53400;50.364;14.874;2024-02-04T12:13:19;0.82;;;0.47;;
66546;SDS011;53400;50.364;14.874;2024-02-04T12:15:55;1.23;;;0.70;;
66546;SDS011;53400;50.364;14.874;2024-02-04T12:18:21;1.35;;;0.70;;
66546;SDS011;53400;50.364;14.874;2024-02-04T12:20:48;2.28;;;0.80;;
66546;SDS011;53400;50.364;14.874;2024-02-04T12:23:17;1.55;;;0.60;;
66546;SDS011;53400;50.364;14.874;2024-02-04T12:25:48;1.60;;;0.70;;
66546;SDS011;53400;50.364;14.874;2024-02-04T12:28:16;1.15;;;0.60;;
66546;SDS011;53400;50.364;14.874;2024-02-04T12:30:51;1.58;;;0.70;;
66546;SDS011;53400;50.364;14.874;2024-02-04T12:33:19;2.97;;;0.98;;
66546;SDS011;53400;50.364;14.874;2024-02-04T12:35:48;2.20;;;0.90;;
66546;SDS011;53400;50.364;14.874;2024-02-04T12:38:16;1.58;;;0.60;;
66546;SDS011;53400;50.364;14.874;2024-02-04T12:41:00;2.38;;;0.85;;
66546;SDS011;53400;50.364;14.874;2024-02-04T12:43:29;1.40;;;0.63;;
66546;SDS011;53400;50.364;14.874;2024-02-04T12:45:56;2.83;;;0.70;;
66546;SDS011;53400;50.364;14.874;2024-02-04T12:48:25;0.88;;;0.50;;
66546;SDS011;53400;50.364;14.874;2024-02-04T12:50:53;1.15;;;0.57;;
66546;SDS011;53400;50.364;14.874;2024-02-04T12:53:19;1.40;;;0.60;;
66546;SDS011;53400;50.364;14.874;2024-02-04T12:55:45;2.03;;;0.60;;
66546;SDS011;53400;50.364;14.874;2024-02-04T12:58:13;2.28;;;0.60;;
66546;SDS011;53400;50.364;14.874;2024-02-04T13:00:46;2.28;;;0.82;;
66546;SDS011;53400;50.364;14.874;2024-02-04T13:03:14;1.05;;;0.55;;
66546;SDS011;53400;50.364;14.874;2024-02-04T13:05:41;1.20;;;0.50;;
66546;SDS011;53400;50.364;14.874;2024-02-04T13:08:10;1.23;;;0.60;;
66546;SDS011;53400;50.364;14.874;2024-02-04T13:10:36;1.35;;;0.70;;
66546;SDS011;53400;50.364;14.874;2024-02-04T13:13:03;2.15;;;0.60;;
66546;SDS011;53400;50.364;14.874;2024-02-04T13:15:32;1.10;;;0.55;;
66546;SDS011;53400;50.364;14.874;2024-02-04T13:18:00;1.70;;;0.60;;
66546;SDS011;53400;50.364;14.874;2024-02-04T13:20:37;1.33;;;0.70;;
66546;SDS011;53400;50.364;14.874;2024-02-04T13:23:04;1.33;;;0.60;;
66546;SDS011;53400;50.364;14.874;2024-02-04T13:25:30;1.55;;;0.70;;
66546;SDS011;53400;50.364;14.874;2024-02-04T13:27:57;2.00;;;0.70;;
66546;SDS011;53400;50.364;14.874;2024-02-04T13:30:23;2.17;;;0.88;;
66546;SDS011;53400;50.364;14.874;2024-02-04T13:32:49;1.02;;;0.60;;
66546;SDS011;53400;50.364;14.874;2024-02-04T13:35:18;2.72;;;0.85;;
66546;SDS011;53400;50.364;14.874;2024-02-04T13:37:45;1.73;;;0.80;;
66546;SDS011;53400;50.364;14.874;2024-02-04T13:40:13;1.95;;;0.63;;
66546;SDS011;53400;50.364;14.874;2024-02-04T13:42:41;2.25;;;0.85;;
66546;SDS011;53400;50.364;14.874;2024-02-04T13:45:07;2.47;;;0.85;;
66546;SDS011;53400;50.364;14.874;2024-02-04T13:47:42;1.33;;;0.60;;
66546;SDS011;53400;50.364;14.874;2024-02-04T13:50:12;1.27;;;0.70;;
66546;SDS011;53400;50.364;14.874;2024-02-04T13:52:40;1.38;;;0.65;;
66546;SDS011;53400;50.364;14.874;2024-02-04T13:55:06;2.08;;;0.82;;
66546;SDS011;53400;50.364;14.874;2024-02-04T13:57:39;1.30;;;0.70;;
66546;SDS011;53400;50.364;14.874;2024-02-04T14:00:10;3.53;;;1.00;;
66546;SDS011;53400;50.364;14.874;2024-02-04T14:02:37;3.55;;;0.80;;
66546;SDS011;53400;50.364;14.874;2024-02-04T14:05:04;0.55;;;0.35;;
66546;SDS011;53400;50.364;14.874;2024-02-04T14:07:30;1.60;;;0.70;;
66546;SDS011;53400;50.364;14.874;2024-02-04T14:09:58;3.92;;;1.00;;
66546;SDS011;53400;50.364;14.874;2024-02-04T14:12:24;1.90;;;0.82;;
66546;SDS011;53400;50.364;14.874;2024-02-04T14:14:51;1.95;;;0.80;;
66546;SDS011;53400;50.364;14.874;2024-02-04T14:17:19;2.40;;;0.80;;
66546;SDS011;53400;50.364;14.874;2024-02-04T14:19:48;0.82;;;0.43;;
66546;SDS011;53400;50.364;14.874;2024-02-04T14:22:17;1.73;;;0.70;;
66546;SDS011;53400;50.364;14.874;2024-02-04T14:24:44;1.55;;;0.70;;
66546;SDS011;53400;50.364;14.874;2024-02-04T14:27:13;1.90;;;0.70;;
66546;SDS011;53400;50.364;14.874;2024-02-04T14:29:39;2.90;;;0.90;;
66546;SDS011;53400;50.364;14.874;2024-02-04T14:32:07;2.33;;;0.70;;
66546;SDS011;53400;50.364;14.874;2024-02-04T14:34:34;2.05;;;0.70;;
66546;SDS011;53400;50.364;14.874;2024-02-04T14:37:00;2.10;;;0.80;;
66546;SDS011;53400;50.364;14.874;2024-02-04T14:39:26;2.55;;;0.80;;
66546;SDS011;53400;50.364;14.874;2024-02-04T14:41:52;2.33;;;1.00;;
66546;SDS011;53400;50.364;14.874;2024-02-04T14:44:23;2.33;;;0.85;;
66546;SDS011;53400;50.364;14.874;2024-02-04T14:46:49;2.33;;;0.70;;
66546;SDS011;53400;50.364;14.874;2024-02-04T14:49:15;1.50;;;0.70;;
66546;SDS011;53400;50.364;14.874;2024-02-04T14:51:46;1.92;;;0.70;;
66546;SDS011;53400;50.364;14.874;2024-02-04T14:54:15;1.90;;;0.73;;
66546;SDS011;53400;50.364;14.874;2024-02-04T14:56:42;1.88;;;1.02;;
66546;SDS011;53400;50.364;14.874;2024-02-04T14:59:08;1.33;;;0.73;;